createdAt,value
2018-06-13T00:00:41.195Z,16.30
2018-06-13T00:03:11.025Z,16.30
2018-06-13T00:05:40.847Z,16.40
2018-06-13T00:08:10.039Z,16.40
2018-06-13T00:10:40.408Z,16.40
2018-06-13T00:13:10.123Z,16.50
2018-06-13T00:15:39.826Z,16.60
2018-06-13T00:18:08.679Z,16.60
2018-06-13T00:20:38.428Z,16.60
2018-06-13T00:23:07.516Z,16.60
2018-06-13T00:25:37.262Z,16.60
2018-06-13T00:28:06.849Z,16.60
2018-06-13T00:30:36.571Z,16.60
2018-06-13T00:33:06.565Z,16.60
2018-06-13T00:35:36.353Z,16.50
2018-06-13T00:40:34.852Z,16.50
2018-06-13T00:43:04.052Z,16.50
2018-06-13T00:45:33.847Z,16.40
2018-06-13T00:48:03.570Z,16.40
2018-06-13T00:50:33.444Z,16.50
2018-06-13T00:53:02.281Z,16.50
2018-06-13T00:55:31.208Z,16.60
2018-06-13T00:58:00.089Z,16.60
2018-06-13T01:00:28.928Z,16.50
2018-06-13T01:02:57.795Z,16.50
2018-06-13T01:05:26.618Z,16.50
2018-06-13T01:07:55.495Z,16.50
2018-06-13T01:10:25.834Z,16.50
2018-06-13T01:12:54.945Z,16.50
2018-06-13T01:15:24.116Z,16.50
2018-06-13T01:17:53.947Z,16.40
2018-06-13T01:20:23.819Z,16.30
2018-06-13T01:22:52.949Z,16.30
2018-06-13T01:25:22.123Z,16.30
2018-06-13T01:27:51.304Z,16.20
2018-06-13T01:30:20.597Z,16.20
2018-06-13T01:32:51.064Z,16.20
2018-06-13T01:35:20.284Z,16.10
2018-06-13T01:37:49.515Z,16.10
2018-06-13T01:40:18.572Z,16.20
2018-06-13T01:45:17.088Z,16.10
2018-06-13T01:47:46.236Z,16.10
2018-06-13T01:50:15.945Z,16.10
2018-06-13T01:52:45.241Z,16.00
2018-06-13T01:55:14.298Z,16.00
2018-06-13T01:57:43.900Z,16.00
2018-06-13T02:00:14.674Z,16.00
2018-06-13T02:02:45.311Z,16.00
2018-06-13T02:05:17.655Z,16.00
2018-06-13T02:07:47.011Z,15.90
2018-06-13T02:10:15.860Z,15.90
2018-06-13T02:12:44.692Z,15.90
2018-06-13T02:15:13.555Z,15.90
2018-06-13T02:17:42.428Z,15.90
2018-06-13T02:20:11.300Z,15.90
2018-06-13T02:22:40.189Z,15.90
2018-06-13T02:25:09.795Z,15.90
2018-06-13T02:27:40.490Z,15.90
2018-06-13T02:30:10.040Z,16.00
2018-06-13T02:32:41.994Z,16.00
2018-06-13T02:35:11.574Z,16.00
2018-06-13T02:37:40.556Z,15.90
2018-06-13T02:40:09.696Z,15.80
2018-06-13T02:42:39.762Z,15.70
2018-06-13T02:45:09.403Z,15.80
2018-06-13T02:47:39.202Z,15.80
2018-06-13T02:50:08.785Z,15.80
2018-06-13T02:52:37.977Z,15.70
2018-06-13T02:55:07.213Z,15.70
2018-06-13T02:57:37.210Z,15.70
2018-06-13T03:00:07.895Z,15.80
2018-06-13T03:02:37.731Z,15.80
2018-06-13T03:05:06.795Z,15.80
2018-06-13T03:07:35.956Z,15.90
2018-06-13T03:10:05.390Z,15.80
2018-06-13T03:12:34.607Z,15.90
2018-06-13T03:15:03.825Z,15.90
2018-06-13T03:17:33.520Z,15.80
2018-06-13T03:20:02.748Z,15.80
2018-06-13T03:22:31.920Z,15.90
2018-06-13T03:25:01.039Z,15.90
2018-06-13T03:27:29.908Z,15.90
2018-06-13T03:29:58.799Z,15.90
2018-06-13T03:32:27.670Z,15.90
2018-06-13T03:34:56.534Z,15.90
2018-06-13T03:37:25.381Z,15.90
2018-06-13T03:39:54.268Z,15.90
2018-06-13T03:42:23.524Z,16.00
2018-06-13T03:44:52.721Z,16.00
2018-06-13T03:47:22.874Z,16.00
2018-06-13T03:49:52.023Z,16.00
2018-06-13T03:52:21.617Z,15.90
2018-06-13T03:54:50.727Z,15.90
2018-06-13T03:57:19.860Z,16.00
2018-06-13T03:59:49.326Z,15.90
2018-06-13T04:02:18.553Z,15.90
2018-06-13T04:04:49.392Z,16.00
2018-06-13T04:07:18.494Z,16.10
2018-06-13T04:09:47.748Z,16.20
2018-06-13T04:12:17.887Z,16.30
2018-06-13T04:14:47.274Z,16.50
2018-06-13T04:17:17.007Z,16.50
2018-06-13T04:19:46.055Z,16.50
2018-06-13T04:22:15.357Z,16.50
2018-06-13T04:24:44.694Z,16.40
2018-06-13T04:27:14.367Z,16.50
2018-06-13T04:29:44.208Z,16.60
2018-06-13T04:32:13.134Z,16.70
2018-06-13T04:34:42.026Z,16.80
2018-06-13T04:37:10.981Z,16.70
2018-06-13T04:39:41.201Z,16.80
2018-06-13T04:42:11.109Z,16.90
2018-06-13T04:44:39.996Z,17.00
2018-06-13T04:47:08.871Z,17.10
2018-06-13T04:49:37.777Z,17.30
2018-06-13T04:52:06.663Z,17.40
2018-06-13T04:54:35.572Z,17.70
2018-06-13T04:57:04.923Z,17.80
2018-06-13T04:59:33.882Z,17.90
2018-06-13T05:02:02.835Z,17.80
2018-06-13T05:04:31.973Z,17.80
2018-06-13T05:07:01.323Z,17.70
2018-06-13T05:09:30.931Z,17.60
2018-06-13T05:12:00.627Z,17.50
2018-06-13T05:14:29.788Z,17.40
2018-06-13T05:17:00.154Z,17.60
2018-06-13T05:19:29.299Z,17.80
2018-06-13T05:21:58.445Z,17.90
2018-06-13T05:24:27.712Z,18.00
2018-06-13T05:26:56.656Z,18.10
2018-06-13T05:29:25.779Z,18.30
2018-06-13T05:31:55.532Z,18.30
2018-06-13T05:34:25.202Z,18.40
2018-06-13T05:36:56.039Z,18.80
2018-06-13T05:39:25.184Z,18.70
2018-06-13T05:41:55.296Z,18.50
2018-06-13T05:44:24.787Z,18.40
2018-06-13T05:46:53.878Z,18.40
2018-06-13T05:49:23.704Z,18.40
2018-06-13T05:51:53.264Z,18.60
2018-06-13T05:54:23.209Z,18.80
2018-06-13T05:56:52.088Z,18.70
2018-06-13T05:59:21.279Z,18.70
2018-06-13T06:01:50.122Z,18.70
2018-06-13T06:04:18.979Z,18.70
2018-06-13T06:06:47.891Z,18.70
2018-06-13T06:09:16.812Z,18.80
2018-06-13T06:11:45.688Z,18.70
2018-06-13T06:14:15.181Z,18.70
2018-06-13T06:16:44.429Z,18.70
2018-06-13T06:19:14.513Z,18.80
2018-06-13T06:21:43.538Z,18.80
2018-06-13T06:24:12.742Z,18.60
2018-06-13T06:26:41.661Z,18.60
2018-06-13T06:29:10.632Z,18.60
2018-06-13T06:31:39.910Z,18.60
2018-06-13T06:34:09.184Z,18.50
2018-06-13T06:36:39.127Z,18.30
2018-06-13T06:39:08.924Z,18.20
2018-06-13T06:41:38.080Z,18.20
2018-06-13T06:44:08.096Z,18.20
2018-06-13T06:46:38.111Z,18.30
2018-06-13T06:49:07.952Z,18.40
2018-06-13T06:51:37.109Z,18.40
2018-06-13T06:54:06.831Z,18.50
2018-06-13T06:56:35.918Z,18.40
2018-06-13T06:59:04.849Z,18.50
2018-06-13T07:01:34.758Z,18.70
2018-06-13T07:04:05.389Z,18.90
2018-06-13T07:06:34.651Z,19.10
2018-06-13T07:09:06.347Z,18.90
2018-06-13T07:11:35.900Z,19.00
2018-06-13T07:14:05.168Z,19.20
2018-06-13T07:16:34.278Z,19.50
2018-06-13T07:19:04.187Z,20.00
2018-06-13T07:21:33.084Z,20.40
2018-06-13T07:24:02.029Z,20.60
2018-06-13T07:26:30.903Z,21.00
2018-06-13T07:28:59.748Z,21.10
2018-06-13T07:31:28.679Z,21.20
2018-06-13T07:33:57.951Z,21.20
2018-06-13T07:36:26.876Z,20.90
2018-06-13T07:38:56.650Z,20.90
2018-06-13T07:41:27.597Z,20.70
2018-06-13T07:43:56.771Z,20.60
2018-06-13T07:46:25.847Z,20.30
2018-06-13T07:48:54.796Z,20.10
2018-06-13T07:51:23.947Z,19.90
2018-06-13T07:53:52.958Z,19.80
2018-06-13T07:56:21.830Z,19.90
2018-06-13T07:58:50.758Z,19.80
2018-06-13T08:01:19.616Z,19.70
2018-06-13T08:03:48.540Z,19.60
2018-06-13T08:06:17.439Z,19.40
2018-06-13T08:08:46.331Z,19.40
2018-06-13T08:11:15.240Z,19.50
2018-06-13T08:13:45.625Z,19.30
2018-06-13T08:16:14.598Z,19.20
2018-06-13T08:18:43.607Z,19.30
2018-06-13T08:21:12.509Z,19.40
2018-06-13T08:23:41.397Z,19.40
2018-06-13T08:26:11.436Z,19.50
2018-06-13T08:28:40.344Z,19.50
2018-06-13T08:31:09.185Z,19.70
2018-06-13T08:33:38.039Z,19.80
2018-06-13T08:36:06.952Z,20.00
2018-06-13T08:38:36.105Z,20.20
2018-06-13T08:41:05.052Z,20.20
2018-06-13T08:43:33.900Z,20.00
2018-06-13T08:46:02.808Z,19.70
2018-06-13T08:48:32.535Z,19.20
2018-06-13T08:51:02.181Z,19.00
2018-06-13T08:53:31.277Z,19.00
2018-06-13T08:56:00.778Z,19.00
2018-06-13T08:58:30.020Z,18.90
2018-06-13T09:00:59.092Z,18.90
2018-06-13T09:03:27.957Z,18.90
2018-06-13T09:05:57.094Z,18.90
2018-06-13T09:08:25.947Z,18.90
2018-06-13T09:10:55.640Z,19.00
2018-06-13T09:13:24.781Z,19.40
2018-06-13T09:15:54.437Z,20.10
2018-06-13T09:18:23.290Z,20.60
2018-06-13T09:20:52.191Z,21.30
2018-06-13T09:25:49.667Z,21.60
2018-06-13T09:28:18.516Z,21.00
2018-06-13T09:30:47.774Z,20.40
2018-06-13T09:33:16.702Z,20.40
2018-06-13T09:35:45.576Z,20.50
2018-06-13T09:38:14.479Z,20.70
2018-06-13T09:40:43.402Z,20.80
2018-06-13T09:43:12.231Z,20.60
2018-06-13T09:45:41.159Z,20.40
2018-06-13T09:48:09.986Z,20.40
2018-06-13T09:50:38.866Z,20.60
2018-06-13T09:53:07.738Z,20.70
2018-06-13T09:55:36.626Z,20.50
2018-06-13T09:58:05.889Z,20.20
2018-06-13T10:00:40.003Z,20.50
2018-06-13T10:03:10.736Z,20.80
2018-06-13T10:05:40.386Z,21.10
2018-06-13T10:08:09.652Z,21.30
2018-06-13T10:10:38.504Z,21.70
2018-06-13T10:13:07.830Z,21.90
2018-06-13T10:15:37.595Z,21.70
2018-06-13T10:18:06.631Z,21.60
2018-06-13T10:20:35.730Z,21.50
2018-06-13T10:23:04.566Z,21.10
2018-06-13T10:25:33.771Z,20.90
2018-06-13T10:28:02.687Z,21.00
2018-06-13T10:30:31.942Z,20.80
2018-06-13T10:33:01.449Z,20.50
2018-06-13T10:35:30.577Z,20.20
2018-06-13T10:38:00.317Z,20.10
2018-06-13T10:40:29.367Z,19.90
2018-06-13T10:42:58.549Z,20.00
2018-06-13T10:45:27.399Z,20.20
2018-06-13T10:47:56.558Z,20.40
2018-06-13T10:50:25.606Z,20.40
2018-06-13T10:52:54.744Z,20.30
2018-06-13T10:55:23.570Z,20.20
2018-06-13T10:57:52.623Z,20.10
2018-06-13T11:00:21.446Z,19.80
2018-06-13T11:02:50.348Z,19.50
2018-06-13T11:05:19.215Z,19.50
2018-06-13T11:07:48.112Z,19.90
2018-06-13T11:10:16.943Z,20.50
2018-06-13T11:12:45.835Z,20.90
2018-06-13T11:15:14.944Z,21.10
2018-06-13T11:17:45.060Z,21.50
2018-06-13T11:20:13.879Z,21.10
2018-06-13T11:22:42.996Z,20.90
2018-06-13T11:25:13.524Z,21.10
2018-06-13T11:27:42.659Z,21.00
2018-06-13T11:30:11.755Z,20.90
2018-06-13T11:32:41.524Z,20.70
2018-06-13T11:35:10.555Z,20.80
2018-06-13T11:37:39.384Z,20.70
2018-06-13T11:40:08.334Z,20.80
2018-06-13T11:42:38.758Z,21.00
2018-06-13T11:45:08.475Z,21.40
2018-06-13T11:47:37.614Z,21.70
2018-06-13T11:50:08.038Z,21.30
2018-06-13T11:52:37.850Z,21.20
2018-06-13T11:55:07.427Z,21.20
2018-06-13T11:57:36.423Z,21.50
2018-06-13T12:00:07.018Z,22.00
2018-06-13T12:02:36.005Z,21.90
2018-06-13T12:05:05.519Z,21.80
2018-06-13T12:07:34.599Z,21.90
2018-06-13T12:10:03.523Z,22.00
2018-06-13T12:12:32.417Z,21.90
2018-06-13T12:15:01.312Z,22.20
2018-06-13T12:17:31.206Z,22.70
2018-06-13T12:20:00.030Z,23.30
2018-06-13T12:22:28.898Z,23.50
2018-06-13T12:24:57.773Z,23.40
2018-06-13T12:27:26.676Z,23.10
2018-06-13T12:29:55.584Z,22.40
2018-06-13T12:32:25.344Z,22.30
2018-06-13T12:34:55.218Z,22.40
2018-06-13T12:37:24.159Z,22.40
2018-06-13T12:42:22.724Z,22.70
2018-06-13T12:44:51.710Z,23.00
2018-06-13T12:47:20.528Z,23.50
2018-06-13T12:49:49.566Z,23.60
2018-06-13T12:52:18.684Z,23.50
2018-06-13T12:54:47.798Z,23.30
2018-06-13T12:57:17.573Z,23.30
2018-06-13T12:59:46.472Z,23.30
2018-06-13T13:02:15.303Z,23.20
2018-06-13T13:04:44.373Z,23.10
2018-06-13T13:07:13.554Z,22.80
2018-06-13T13:09:42.747Z,22.70
2018-06-13T13:12:12.018Z,22.50
2018-06-13T13:14:41.047Z,22.30
2018-06-13T13:17:10.127Z,22.10
2018-06-13T13:19:39.223Z,21.80
2018-06-13T13:22:08.120Z,21.30
2018-06-13T13:24:36.966Z,21.30
2018-06-13T13:27:06.783Z,21.20
2018-06-13T13:29:36.478Z,21.20
2018-06-13T13:32:05.763Z,21.20
2018-06-13T13:34:35.129Z,21.30
2018-06-13T13:37:03.939Z,21.20
2018-06-13T13:39:32.796Z,21.20
2018-06-13T13:42:01.631Z,21.20
2018-06-13T13:44:30.556Z,21.50
2018-06-13T13:46:59.427Z,21.60
2018-06-13T13:49:28.318Z,21.50
2018-06-13T13:51:58.627Z,21.50
2018-06-13T13:54:28.354Z,21.40
2018-06-13T13:56:57.210Z,21.40
2018-06-13T13:59:27.095Z,21.30
2018-06-13T14:01:55.990Z,21.30
2018-06-13T14:04:25.866Z,21.20
2018-06-13T14:06:55.165Z,21.00
2018-06-13T14:09:25.895Z,20.60
2018-06-13T14:11:55.809Z,20.40
2018-06-13T14:14:25.455Z,20.00
2018-06-13T14:16:56.968Z,19.90
2018-06-13T14:19:26.642Z,20.00
2018-06-13T14:21:55.787Z,20.00
2018-06-13T14:24:25.384Z,20.00
2018-06-13T14:26:56.405Z,20.30
2018-06-13T14:29:26.432Z,20.50
2018-06-13T14:31:57.573Z,20.40
2018-06-13T14:34:28.568Z,20.40
2018-06-13T14:36:59.345Z,20.10
2018-06-13T14:39:31.992Z,20.00
2018-06-13T14:42:02.805Z,20.00
2018-06-13T14:44:32.860Z,20.10
2018-06-13T14:47:02.220Z,20.20
2018-06-13T14:49:31.880Z,20.00
2018-06-13T14:52:02.186Z,19.90
2018-06-13T14:54:31.889Z,20.00
2018-06-13T14:57:01.800Z,20.00
2018-06-13T14:59:34.442Z,20.00
2018-06-13T15:02:03.900Z,20.00
2018-06-13T15:04:35.744Z,20.10
2018-06-13T15:07:06.867Z,20.30
2018-06-13T15:09:36.397Z,20.40
2018-06-13T15:12:05.652Z,20.70
2018-06-13T15:14:35.800Z,20.90
2018-06-13T15:17:07.938Z,21.00
2018-06-13T15:19:38.504Z,21.20
2018-06-13T15:22:08.690Z,21.20
2018-06-13T15:24:39.495Z,21.30
2018-06-13T15:27:10.316Z,21.20
2018-06-13T15:29:39.472Z,21.20
2018-06-13T15:32:10.115Z,21.20
2018-06-13T15:34:39.303Z,21.20
2018-06-13T15:37:09.239Z,21.00
2018-06-13T15:39:38.506Z,20.90
2018-06-13T15:42:11.487Z,20.80
2018-06-13T15:44:43.008Z,20.90
2018-06-13T15:47:13.670Z,20.80
2018-06-13T15:49:44.787Z,20.80
2018-06-13T15:52:14.978Z,20.70
2018-06-13T15:54:45.249Z,20.40
2018-06-13T15:57:16.783Z,20.50
2018-06-13T15:59:47.209Z,20.60
2018-06-13T16:02:16.200Z,20.50
2018-06-13T16:04:47.304Z,20.20
2018-06-13T16:07:16.309Z,20.20
2018-06-13T16:09:45.270Z,20.20
2018-06-13T16:12:14.321Z,20.40
2018-06-13T16:14:44.239Z,20.60
2018-06-13T16:17:13.861Z,20.60
2018-06-13T16:19:43.253Z,20.60
2018-06-13T16:22:12.847Z,20.60
2018-06-13T16:24:43.028Z,20.60
2018-06-13T16:27:12.652Z,20.50
2018-06-13T16:29:41.982Z,20.60
2018-06-13T16:32:11.317Z,20.70
2018-06-13T16:34:40.410Z,20.70
2018-06-13T16:37:09.552Z,20.60
2018-06-13T16:39:39.558Z,20.60
2018-06-13T16:42:09.920Z,20.50
2018-06-13T16:44:39.861Z,20.50
2018-06-13T16:47:08.900Z,20.50
2018-06-13T16:49:38.601Z,20.50
2018-06-13T16:52:19.060Z,20.40
2018-06-13T16:54:59.212Z,20.40
2018-06-13T16:57:28.411Z,20.40
2018-06-13T16:59:58.310Z,20.50
2018-06-13T17:02:29.092Z,20.50
2018-06-13T17:04:58.067Z,20.40
2018-06-13T17:09:55.993Z,20.10
2018-06-13T17:12:25.002Z,20.00
2018-06-13T17:14:53.924Z,20.00
2018-06-13T17:17:22.843Z,20.00
2018-06-13T17:19:51.744Z,20.00
2018-06-13T17:22:22.542Z,19.90
2018-06-13T17:24:51.567Z,19.80
2018-06-13T17:27:20.651Z,19.70
2018-06-13T17:29:49.645Z,19.60
2018-06-13T17:32:18.612Z,19.50
2018-06-13T17:34:48.390Z,19.50
2018-06-13T17:37:17.689Z,19.30
2018-06-13T17:39:47.398Z,19.20
2018-06-13T17:42:16.574Z,19.20
2018-06-13T17:44:47.583Z,19.20
2018-06-13T17:47:19.601Z,19.10
2018-06-13T17:49:49.110Z,19.20
2018-06-13T17:52:19.317Z,19.00
2018-06-13T17:54:49.535Z,19.00
2018-06-13T17:57:19.373Z,19.00
2018-06-13T17:59:49.117Z,19.00
2018-06-13T18:02:19.435Z,19.10
2018-06-13T18:05:29.808Z,19.00
2018-06-13T18:10:27.621Z,19.10
2018-06-13T18:12:56.912Z,19.10
2018-06-13T18:15:26.564Z,19.20
2018-06-13T18:17:55.823Z,19.10
2018-06-13T18:20:25.088Z,19.10
2018-06-13T18:22:54.787Z,19.00
2018-06-13T18:25:24.027Z,19.10
2018-06-13T18:27:53.295Z,19.10
2018-06-13T18:30:22.621Z,19.10
2018-06-13T18:32:52.242Z,19.00
2018-06-13T18:35:21.321Z,19.00
2018-06-13T18:37:50.374Z,19.00
2018-06-13T18:40:19.589Z,18.90
2018-06-13T18:42:49.074Z,18.80
2018-06-13T18:45:18.039Z,18.80
2018-06-13T18:47:47.203Z,18.70
2018-06-13T18:50:18.696Z,18.70
2018-06-13T18:52:48.655Z,18.60
2018-06-13T18:55:18.229Z,18.60
2018-06-13T18:57:47.773Z,18.50
2018-06-13T19:00:18.449Z,18.50
2018-06-13T19:02:47.790Z,18.40
2018-06-13T19:05:16.987Z,18.30
2018-06-13T19:07:46.348Z,18.30
2018-06-13T19:10:15.539Z,18.10
2018-06-13T19:12:45.811Z,18.10
2018-06-13T19:15:14.952Z,18.20
2018-06-13T19:17:45.825Z,18.20
2018-06-13T19:20:16.014Z,18.20
2018-06-13T19:22:45.236Z,18.20
2018-06-13T19:25:14.417Z,18.20
2018-06-13T19:27:43.493Z,18.20
2018-06-13T19:30:12.715Z,18.10
2018-06-13T19:32:41.881Z,18.00
2018-06-13T19:35:11.056Z,18.10
2018-06-13T19:37:40.858Z,18.10
2018-06-13T19:40:10.020Z,18.00
2018-06-13T19:42:39.207Z,17.90
2018-06-13T19:45:08.439Z,17.90
2018-06-13T19:50:11.879Z,17.90
2018-06-13T19:52:45.939Z,17.90
2018-06-13T19:55:20.092Z,17.90
2018-06-13T19:57:49.077Z,17.80
2018-06-13T20:00:18.398Z,17.80
2018-06-13T20:02:52.633Z,17.80
2018-06-13T20:05:26.784Z,17.80
2018-06-13T20:07:55.760Z,17.80
2018-06-13T20:10:25.139Z,17.80
2018-06-13T20:12:59.383Z,17.80
2018-06-13T20:15:33.778Z,17.70
2018-06-13T20:20:37.074Z,17.70
2018-06-13T20:23:06.443Z,17.70
2018-06-13T20:25:41.559Z,17.70
2018-06-13T20:28:16.440Z,17.70
2018-06-13T20:30:50.772Z,17.70
2018-06-13T20:33:19.953Z,17.60
2018-06-13T20:35:49.458Z,17.60
2018-06-13T20:38:19.282Z,17.60
2018-06-13T20:40:48.581Z,17.60
2018-06-13T20:43:17.927Z,17.50
2018-06-13T20:45:47.221Z,17.50
2018-06-13T20:48:16.523Z,17.50
2018-06-13T20:50:45.821Z,17.40
2018-06-13T20:53:15.035Z,17.50
2018-06-13T20:55:44.142Z,17.40
2018-06-13T20:58:13.219Z,17.40
2018-06-13T21:00:42.545Z,17.40
2018-06-13T21:03:11.827Z,17.40
2018-06-13T21:05:40.982Z,17.30
2018-06-13T21:08:10.304Z,17.30
2018-06-13T21:10:39.644Z,17.30
2018-06-13T21:13:08.570Z,17.20
2018-06-13T21:15:39.156Z,17.30
2018-06-13T21:18:08.211Z,17.10
2018-06-13T21:20:37.115Z,17.10
2018-06-13T21:23:06.384Z,17.00
2018-06-13T21:25:36.375Z,17.00
2018-06-13T21:28:05.569Z,16.90
2018-06-13T21:30:34.795Z,16.90
2018-06-13T21:33:04.939Z,16.90
2018-06-13T21:35:34.217Z,16.90
2018-06-13T21:38:03.424Z,16.90
2018-06-13T21:40:32.717Z,16.90
2018-06-13T21:43:03.489Z,16.90
2018-06-13T21:45:32.639Z,16.80
2018-06-13T21:48:01.955Z,16.90
2018-06-13T21:50:31.318Z,16.90
2018-06-13T21:53:00.510Z,16.90
2018-06-13T21:55:29.685Z,16.90
2018-06-13T21:57:58.885Z,16.90
2018-06-13T22:00:28.433Z,16.90
2018-06-13T22:02:58.139Z,17.00
2018-06-13T22:05:27.209Z,17.00
2018-06-13T22:07:56.506Z,17.00
2018-06-13T22:10:25.680Z,16.90
2018-06-13T22:12:55.021Z,16.90
2018-06-13T22:15:26.060Z,16.90
2018-06-13T22:17:56.746Z,16.90
2018-06-13T22:22:59.841Z,16.80
2018-06-13T22:25:28.754Z,16.70
2018-06-13T22:27:57.951Z,16.60
2018-06-13T22:30:26.946Z,16.60
2018-06-13T22:32:55.901Z,16.50
2018-06-13T22:35:24.828Z,16.50
2018-06-13T22:37:53.715Z,16.50
2018-06-13T22:40:22.841Z,16.40
2018-06-13T22:42:52.102Z,16.40
2018-06-13T22:45:21.325Z,16.40
2018-06-13T22:47:50.678Z,16.30
2018-06-13T22:50:19.823Z,16.20
2018-06-13T22:52:48.892Z,16.20
2018-06-13T22:55:18.165Z,16.20
2018-06-13T22:57:47.577Z,16.30
2018-06-13T23:00:26.153Z,16.20
2018-06-13T23:02:55.715Z,16.20
2018-06-13T23:05:24.703Z,16.10
2018-06-13T23:07:54.037Z,16.10
2018-06-13T23:10:23.176Z,16.00
2018-06-13T23:12:52.480Z,16.00
2018-06-13T23:15:22.439Z,16.00
2018-06-13T23:17:51.617Z,16.00
2018-06-13T23:20:20.772Z,16.00
2018-06-13T23:22:49.871Z,15.90
2018-06-13T23:25:18.939Z,15.90
2018-06-13T23:27:48.450Z,15.90
2018-06-13T23:30:17.673Z,15.80
2018-06-13T23:32:46.765Z,15.80
2018-06-13T23:35:16.713Z,15.70
2018-06-13T23:37:45.843Z,15.70
2018-06-13T23:40:15.652Z,15.70
2018-06-13T23:42:44.581Z,15.60
2018-06-13T23:45:13.517Z,15.60
2018-06-13T23:47:42.446Z,15.50
2018-06-13T23:50:11.376Z,15.50
2018-06-13T23:52:40.384Z,15.40
2018-06-13T23:55:09.722Z,15.30
2018-06-13T23:57:39.060Z,15.30
